createdAt,value
2022-11-02T00:02:07.470Z,9.12
2022-11-02T00:04:33.210Z,9.16
2022-11-02T00:06:59.168Z,9.21
2022-11-02T00:09:24.842Z,9.19
2022-11-02T00:11:50.555Z,9.15
2022-11-02T00:14:16.459Z,9.17
2022-11-02T00:16:42.170Z,9.22
2022-11-02T00:19:09.024Z,9.29
2022-11-02T00:21:35.383Z,9.37
2022-11-02T00:24:01.667Z,9.44
2022-11-02T00:26:28.324Z,9.46
2022-11-02T00:28:54.837Z,9.49
2022-11-02T00:31:20.546Z,9.56
2022-11-02T00:33:46.294Z,9.62
2022-11-02T00:36:12.181Z,9.67
2022-11-02T00:38:37.918Z,9.72
2022-11-02T00:41:03.761Z,9.76
2022-11-02T00:43:29.440Z,9.79
2022-11-02T00:45:55.838Z,9.81
2022-11-02T00:48:21.522Z,9.81
2022-11-02T00:50:47.208Z,9.80
2022-11-02T00:53:13.351Z,9.78
2022-11-02T00:55:39.064Z,9.76
2022-11-02T00:58:04.900Z,9.75
2022-11-02T01:00:31.570Z,9.76
2022-11-02T01:03:01.313Z,9.74
2022-11-02T01:05:27.519Z,9.77
2022-11-02T01:07:53.309Z,9.79
2022-11-02T01:10:18.955Z,9.81
2022-11-02T01:12:44.622Z,9.83
2022-11-02T01:15:10.489Z,9.88
2022-11-02T01:17:36.769Z,9.86
2022-11-02T01:20:04.446Z,9.88
2022-11-02T01:22:31.316Z,9.86
2022-11-02T01:24:56.994Z,9.87
2022-11-02T01:27:23.076Z,9.87
2022-11-02T01:29:49.117Z,9.87
2022-11-02T01:32:14.809Z,9.85
2022-11-02T01:34:40.493Z,9.80
2022-11-02T01:37:06.479Z,9.76
2022-11-02T01:39:32.142Z,9.71
2022-11-02T01:41:57.946Z,9.71
2022-11-02T01:44:25.702Z,9.73
2022-11-02T01:46:57.147Z,9.75
2022-11-02T01:49:23.116Z,9.78
2022-11-02T01:51:57.264Z,9.82
2022-11-02T01:54:26.241Z,9.83
2022-11-02T01:56:57.494Z,9.82
2022-11-02T01:59:30.364Z,9.82
2022-11-02T02:01:56.278Z,9.78
2022-11-02T02:04:22.658Z,9.77
2022-11-02T02:06:49.632Z,9.74
2022-11-02T02:09:15.804Z,9.70
2022-11-02T02:11:41.478Z,9.63
2022-11-02T02:14:09.156Z,9.60
2022-11-02T02:16:40.965Z,9.58
2022-11-02T02:19:32.631Z,9.59
2022-11-02T02:22:21.522Z,9.61
2022-11-02T02:25:29.325Z,9.63
2022-11-02T02:28:13.697Z,9.64
2022-11-02T02:30:49.442Z,9.66
2022-11-02T02:33:32.796Z,9.64
2022-11-02T02:36:06.136Z,9.62
2022-11-02T02:38:48.635Z,9.60
2022-11-02T02:41:43.562Z,9.54
2022-11-02T02:44:15.493Z,9.49
2022-11-02T02:47:01.485Z,9.42
2022-11-02T02:49:34.633Z,9.34
2022-11-02T02:52:01.726Z,9.20
2022-11-02T02:54:35.512Z,9.04
2022-11-02T02:57:07.795Z,8.91
2022-11-02T02:59:40.438Z,8.79
2022-11-02T03:02:12.039Z,8.69
2022-11-02T03:04:38.123Z,8.62
2022-11-02T03:07:04.315Z,8.55
2022-11-02T03:09:41.925Z,8.51
2022-11-02T03:12:26.376Z,8.44
2022-11-02T03:15:05.861Z,8.38
2022-11-02T03:17:58.341Z,8.34
2022-11-02T03:20:33.022Z,8.25
2022-11-02T03:23:14.668Z,8.19
2022-11-02T03:25:43.324Z,8.14
2022-11-02T03:28:25.915Z,8.11
2022-11-02T03:30:59.834Z,8.04
2022-11-02T03:33:32.238Z,7.97
2022-11-02T03:36:12.309Z,7.90
2022-11-02T03:38:44.906Z,7.85
2022-11-02T03:41:12.143Z,7.81
2022-11-02T03:43:40.508Z,7.78
2022-11-02T03:46:07.996Z,7.76
2022-11-02T03:48:44.297Z,7.75
2022-11-02T03:51:13.795Z,7.73
2022-11-02T03:53:52.884Z,7.73
2022-11-02T03:56:25.060Z,7.73
2022-11-02T03:58:50.921Z,7.73
2022-11-02T04:01:20.056Z,7.69
2022-11-02T04:03:46.676Z,7.67
2022-11-02T04:06:13.879Z,7.64
2022-11-02T04:08:45.213Z,7.63
2022-11-02T04:11:29.940Z,7.62
2022-11-02T04:14:14.247Z,7.59
2022-11-02T04:16:40.140Z,7.57
2022-11-02T04:19:24.531Z,7.55
2022-11-02T04:22:08.780Z,7.54
2022-11-02T04:24:53.087Z,7.51
2022-11-02T04:27:21.121Z,7.49
2022-11-02T04:29:47.358Z,7.46
2022-11-02T04:32:13.003Z,7.44
2022-11-02T04:34:38.717Z,7.42
2022-11-02T04:37:24.331Z,7.41
2022-11-02T04:39:50.125Z,7.39
2022-11-02T04:42:15.793Z,7.39
2022-11-02T04:44:41.508Z,7.41
2022-11-02T04:47:07.188Z,7.40
2022-11-02T04:49:32.890Z,7.41
2022-11-02T04:51:58.536Z,7.37
2022-11-02T04:54:24.180Z,7.36
2022-11-02T04:56:49.877Z,7.35
2022-11-02T04:59:15.530Z,7.39
2022-11-02T05:01:41.317Z,7.42
2022-11-02T05:04:09.444Z,7.44
2022-11-02T05:06:35.676Z,7.50
2022-11-02T05:09:01.370Z,7.55
2022-11-02T05:11:27.125Z,7.58
2022-11-02T05:13:52.769Z,7.59
2022-11-02T05:16:18.419Z,7.62
2022-11-02T05:18:44.200Z,7.64
2022-11-02T05:21:11.351Z,7.67
2022-11-02T05:23:37.836Z,7.67
2022-11-02T05:26:10.382Z,7.66
2022-11-02T05:28:36.091Z,7.65
2022-11-02T05:31:02.171Z,7.68
2022-11-02T05:33:30.793Z,7.71
2022-11-02T05:35:58.217Z,7.74
2022-11-02T05:38:24.731Z,7.75
2022-11-02T05:40:55.240Z,7.75
2022-11-02T05:43:21.692Z,7.75
2022-11-02T05:45:57.662Z,7.73
2022-11-02T05:48:24.681Z,7.72
2022-11-02T05:50:58.530Z,7.70
2022-11-02T05:53:25.977Z,7.65
2022-11-02T05:55:52.487Z,7.61
2022-11-02T05:58:18.244Z,7.59
2022-11-02T06:00:44.001Z,7.57
2022-11-02T06:03:09.936Z,7.55
2022-11-02T06:05:35.913Z,7.55
2022-11-02T06:08:02.285Z,7.55
2022-11-02T06:10:29.681Z,7.54
2022-11-02T06:13:00.141Z,7.52
2022-11-02T06:15:27.001Z,7.51
2022-11-02T06:17:52.811Z,7.52
2022-11-02T06:20:19.402Z,7.50
2022-11-02T06:22:45.716Z,7.52
2022-11-02T06:25:12.098Z,7.52
2022-11-02T06:27:42.169Z,7.55
2022-11-02T06:30:10.831Z,7.57
2022-11-02T06:32:36.616Z,7.57
2022-11-02T06:35:02.292Z,7.60
2022-11-02T06:37:28.072Z,7.64
2022-11-02T06:39:53.739Z,7.69
2022-11-02T06:42:19.501Z,7.74
2022-11-02T06:44:45.195Z,7.78
2022-11-02T06:47:10.921Z,7.82
2022-11-02T06:49:36.818Z,7.87
2022-11-02T06:52:02.652Z,7.95
2022-11-02T06:54:28.302Z,8.05
2022-11-02T06:56:53.976Z,8.10
2022-11-02T06:59:19.722Z,8.15
2022-11-02T07:01:45.498Z,8.18
2022-11-02T07:04:11.318Z,8.24
2022-11-02T07:06:36.985Z,8.29
2022-11-02T07:09:02.749Z,8.35
2022-11-02T07:11:28.513Z,8.37
2022-11-02T07:13:54.572Z,8.45
2022-11-02T07:16:20.244Z,8.56
2022-11-02T07:18:46.022Z,8.65
2022-11-02T07:21:11.854Z,8.72
2022-11-02T07:23:37.787Z,8.82
2022-11-02T07:26:04.357Z,8.89
2022-11-02T07:28:30.378Z,9.00
2022-11-02T07:30:56.457Z,9.12
2022-11-02T07:33:22.441Z,9.24
2022-11-02T07:35:48.127Z,9.34
2022-11-02T07:38:13.841Z,9.40
2022-11-02T07:40:39.698Z,9.51
2022-11-02T07:43:06.522Z,9.57
2022-11-02T07:45:32.641Z,9.68
2022-11-02T07:47:58.341Z,9.80
2022-11-02T07:50:28.493Z,9.93
2022-11-02T07:52:56.656Z,10.06
2022-11-02T07:55:27.539Z,10.14
2022-11-02T07:58:05.278Z,10.28
2022-11-02T08:00:34.598Z,10.43
2022-11-02T08:03:01.712Z,10.63
2022-11-02T08:05:28.724Z,10.84
2022-11-02T08:08:01.646Z,11.05
2022-11-02T08:10:32.592Z,11.21
2022-11-02T08:13:01.243Z,11.32
2022-11-02T08:15:27.101Z,11.42
2022-11-02T08:18:13.564Z,11.54
2022-11-02T08:20:40.259Z,11.63
2022-11-02T08:23:06.962Z,11.71
2022-11-02T08:25:33.922Z,11.76
2022-11-02T08:28:00.793Z,11.86
2022-11-02T08:30:28.626Z,12.02
2022-11-02T08:32:57.123Z,12.14
2022-11-02T08:35:23.253Z,12.26
2022-11-02T08:37:55.873Z,12.44
2022-11-02T08:40:21.673Z,12.70
2022-11-02T08:42:47.668Z,12.95
2022-11-02T08:45:14.611Z,13.21
2022-11-02T08:47:41.542Z,13.34
2022-11-02T08:50:10.624Z,13.57
2022-11-02T08:52:40.508Z,13.63
2022-11-02T08:55:06.968Z,13.70
2022-11-02T08:57:32.736Z,13.86
2022-11-02T08:59:58.409Z,13.94
2022-11-02T09:02:24.288Z,13.94
2022-11-02T09:04:50.003Z,14.09
2022-11-02T09:07:15.964Z,14.05
2022-11-02T09:09:41.732Z,14.11
2022-11-02T09:12:07.530Z,14.00
2022-11-02T09:14:33.468Z,13.78
2022-11-02T09:16:59.397Z,13.77
2022-11-02T09:19:25.050Z,13.67
2022-11-02T09:21:50.923Z,13.59
2022-11-02T09:24:16.730Z,13.53
2022-11-02T09:26:42.466Z,13.49
2022-11-02T09:29:08.229Z,13.34
2022-11-02T09:31:33.893Z,13.40
2022-11-02T09:33:59.626Z,13.26
2022-11-02T09:36:25.328Z,13.25
2022-11-02T09:38:50.992Z,13.30
2022-11-02T09:41:50.227Z,13.37
2022-11-02T09:44:26.810Z,13.42
2022-11-02T09:47:27.849Z,13.48
2022-11-02T09:49:40.497Z,13.65
2022-11-02T09:52:14.302Z,13.78
2022-11-02T09:54:43.228Z,13.99
2022-11-02T09:57:13.970Z,14.06
2022-11-02T09:59:40.927Z,13.96
2022-11-02T10:02:34.348Z,13.99
2022-11-02T10:05:26.602Z,14.01
2022-11-02T10:08:01.853Z,14.08
2022-11-02T10:10:39.611Z,14.22
2022-11-02T10:13:39.370Z,14.35
2022-11-02T10:16:16.016Z,14.36
2022-11-02T10:18:42.439Z,14.37
2022-11-02T10:21:13.761Z,14.50
2022-11-02T10:23:43.807Z,14.55
2022-11-02T10:26:17.863Z,14.74
2022-11-02T10:28:47.800Z,14.85
2022-11-02T10:31:32.013Z,14.88
2022-11-02T10:34:12.633Z,14.99
2022-11-02T10:36:57.298Z,15.15
2022-11-02T10:39:40.471Z,15.27
2022-11-02T10:42:29.551Z,15.20
2022-11-02T10:45:25.707Z,15.23
2022-11-02T10:48:03.007Z,15.19
2022-11-02T10:50:45.569Z,15.22
2022-11-02T10:53:39.497Z,15.19
2022-11-02T10:56:11.530Z,15.18
2022-11-02T10:58:45.459Z,15.33
2022-11-02T11:01:12.740Z,15.34
2022-11-02T11:03:58.770Z,15.25
2022-11-02T11:06:28.662Z,15.33
2022-11-02T11:09:04.302Z,15.41
2022-11-02T11:11:39.005Z,15.41
2022-11-02T11:20:20.005Z,15.27
2022-11-02T11:22:45.756Z,15.26
2022-11-02T11:25:11.635Z,15.23
2022-11-02T11:27:46.697Z,15.32
2022-11-02T11:33:22.212Z,15.05
2022-11-02T11:35:50.070Z,14.98
2022-11-02T11:38:19.051Z,14.93
2022-11-02T11:40:53.000Z,14.93
2022-11-02T11:43:21.861Z,14.94
2022-11-02T11:46:00.580Z,14.87
2022-11-02T11:48:49.972Z,14.88
2022-11-02T11:51:29.788Z,14.88
2022-11-02T11:54:26.177Z,14.73
2022-11-02T11:57:15.677Z,14.79
2022-11-02T11:59:51.264Z,14.84
2022-11-02T12:02:32.500Z,14.81
2022-11-02T12:05:00.928Z,14.80
2022-11-02T12:08:00.882Z,14.65
2022-11-02T12:10:40.410Z,14.53
2022-11-02T12:13:19.055Z,14.45
2022-11-02T12:16:14.239Z,14.31
2022-11-02T12:19:01.765Z,14.20
2022-11-02T12:21:54.597Z,14.08
2022-11-02T12:24:46.056Z,14.08
2022-11-02T12:27:14.678Z,13.97
2022-11-02T12:29:58.671Z,13.99
2022-11-02T12:32:49.367Z,14.03
2022-11-02T12:35:39.957Z,14.09
2022-11-02T12:38:21.072Z,14.16
2022-11-02T12:41:05.250Z,14.07
2022-11-02T12:43:39.258Z,14.01
2022-11-02T12:46:10.688Z,14.07
2022-11-02T12:49:01.523Z,14.16
2022-11-02T12:51:37.357Z,14.23
2022-11-02T12:54:11.395Z,14.26
2022-11-02T12:56:46.233Z,14.30
2022-11-02T12:59:22.850Z,14.33
2022-11-02T13:01:54.355Z,14.43
2022-11-02T13:04:29.525Z,14.46
2022-11-02T13:07:13.155Z,14.48
2022-11-02T13:09:51.669Z,14.59
2022-11-02T13:12:20.803Z,14.68
2022-11-02T13:14:49.263Z,14.67
2022-11-02T13:17:22.828Z,14.68
2022-11-02T13:19:53.439Z,14.69
2022-11-02T13:22:23.362Z,14.71
2022-11-02T13:24:55.632Z,14.66
2022-11-02T13:27:45.359Z,14.67
2022-11-02T13:30:16.254Z,14.63
2022-11-02T13:32:48.392Z,14.66
2022-11-02T13:35:26.537Z,14.66
2022-11-02T13:38:04.216Z,14.59
2022-11-02T13:40:37.042Z,14.62
2022-11-02T13:43:13.265Z,14.53
2022-11-02T13:45:52.606Z,14.53
2022-11-02T13:48:36.915Z,14.51
2022-11-02T13:51:07.524Z,14.54
2022-11-02T13:53:37.763Z,14.51
2022-11-02T13:56:21.529Z,14.47
2022-11-02T13:58:52.744Z,14.35
2022-11-02T14:01:19.671Z,14.32
2022-11-02T14:03:57.393Z,14.36
2022-11-02T14:06:26.572Z,14.30
2022-11-02T14:08:59.094Z,14.26
2022-11-02T14:11:33.296Z,14.27
2022-11-02T14:14:01.765Z,14.25
2022-11-02T14:16:42.810Z,14.16
2022-11-02T14:19:20.248Z,14.19
2022-11-02T14:21:58.557Z,14.24
2022-11-02T14:24:36.202Z,14.27
2022-11-02T14:27:11.094Z,14.29
2022-11-02T14:29:46.085Z,14.28
2022-11-02T14:32:30.088Z,14.16
2022-11-02T14:35:14.617Z,14.13
2022-11-02T14:37:45.159Z,14.03
2022-11-02T14:40:22.745Z,13.95
2022-11-02T14:43:05.022Z,13.93
2022-11-02T14:45:54.478Z,13.94
2022-11-02T14:48:20.252Z,13.83
2022-11-02T14:51:03.410Z,13.81
2022-11-02T14:53:33.597Z,13.70
2022-11-02T14:55:59.769Z,13.61
2022-11-02T14:58:36.582Z,13.51
2022-11-02T15:01:04.520Z,13.43
2022-11-02T15:03:40.832Z,13.36
2022-11-02T15:06:16.974Z,13.28
2022-11-02T15:08:50.538Z,13.29
2022-11-02T15:11:41.542Z,13.24
2022-11-02T15:14:35.347Z,13.11
2022-11-02T15:17:14.580Z,13.03
2022-11-02T15:19:53.133Z,12.97
2022-11-02T15:22:28.062Z,12.89
2022-11-02T15:24:57.744Z,12.80
2022-11-02T15:27:24.158Z,12.73
2022-11-02T15:29:50.725Z,12.68
2022-11-02T15:32:23.031Z,12.58
2022-11-02T15:34:51.476Z,12.48
2022-11-02T15:37:25.941Z,12.40
2022-11-02T15:40:00.719Z,12.31
2022-11-02T15:42:34.530Z,12.23
2022-11-02T15:45:34.264Z,12.13
2022-11-02T15:48:15.230Z,11.96
2022-11-02T15:51:05.998Z,11.87
2022-11-02T15:53:39.802Z,11.76
2022-11-02T15:56:33.598Z,11.63
2022-11-02T15:59:17.315Z,11.52
2022-11-02T16:01:43.166Z,11.40
2022-11-02T16:04:19.124Z,11.31
2022-11-02T16:06:46.040Z,11.24
2022-11-02T16:09:41.132Z,11.16
2022-11-02T16:12:12.952Z,11.08
2022-11-02T16:14:39.886Z,11.01
2022-11-02T16:17:17.496Z,10.90
2022-11-02T16:19:43.470Z,10.80
2022-11-02T16:22:09.276Z,10.69
2022-11-02T16:24:35.118Z,10.60
2022-11-02T16:27:01.925Z,10.56
2022-11-02T16:29:30.686Z,10.52
2022-11-02T16:31:56.705Z,10.47
2022-11-02T16:34:27.594Z,10.40
2022-11-02T16:36:53.748Z,10.33
2022-11-02T16:39:41.139Z,10.23
2022-11-02T16:42:16.514Z,10.11
2022-11-02T16:44:42.509Z,10.00
2022-11-02T16:47:11.107Z,9.91
2022-11-02T16:49:49.009Z,9.77
2022-11-02T16:52:29.899Z,9.62
2022-11-02T16:54:56.041Z,9.52
2022-11-02T16:57:25.348Z,9.42
2022-11-02T16:59:56.465Z,9.30
2022-11-02T17:02:37.702Z,9.19
2022-11-02T17:05:07.033Z,9.09
2022-11-02T17:07:40.906Z,8.98
2022-11-02T17:10:08.066Z,8.91
2022-11-02T17:12:37.487Z,8.86
2022-11-02T17:15:13.895Z,8.79
2022-11-02T17:17:39.819Z,8.74
2022-11-02T17:20:14.132Z,8.69
2022-11-02T17:22:54.908Z,8.63
2022-11-02T17:25:28.387Z,8.57
2022-11-02T17:27:56.968Z,8.51
2022-11-02T17:30:34.674Z,8.46
2022-11-02T17:33:12.694Z,8.39
2022-11-02T17:35:45.134Z,8.35
2022-11-02T17:38:11.108Z,8.29
2022-11-02T17:40:37.433Z,8.26
2022-11-02T17:43:03.151Z,8.22
2022-11-02T17:45:36.664Z,8.17
2022-11-02T17:48:03.971Z,8.13
2022-11-02T17:50:31.020Z,8.08
2022-11-02T17:52:58.049Z,8.06
2022-11-02T17:55:26.972Z,8.02
2022-11-02T17:57:54.084Z,7.94
2022-11-02T18:00:20.753Z,7.85
2022-11-02T18:02:51.624Z,7.79
2022-11-02T18:05:23.203Z,7.77
2022-11-02T18:07:49.698Z,7.73
2022-11-02T18:10:16.628Z,7.71
2022-11-02T18:12:42.795Z,7.65
2022-11-02T18:15:20.517Z,7.60
2022-11-02T18:17:46.333Z,7.57
2022-11-02T18:20:13.675Z,7.57
2022-11-02T18:22:39.635Z,7.55
2022-11-02T18:25:07.654Z,7.54
2022-11-02T18:27:34.579Z,7.53
2022-11-02T18:30:00.672Z,7.52
2022-11-02T18:32:26.340Z,7.51
2022-11-02T18:34:52.035Z,7.49
2022-11-02T18:37:17.766Z,7.44
2022-11-02T18:39:43.476Z,7.42
2022-11-02T18:42:09.208Z,7.42
2022-11-02T18:44:34.999Z,7.40
2022-11-02T18:47:00.804Z,7.38
2022-11-02T18:49:26.501Z,7.35
2022-11-02T18:51:52.810Z,7.31
2022-11-02T18:54:18.616Z,7.26
2022-11-02T18:56:44.902Z,7.22
2022-11-02T18:59:10.682Z,7.19
2022-11-02T19:01:36.518Z,7.14
2022-11-02T19:04:02.875Z,7.07
2022-11-02T19:06:48.889Z,7.02
2022-11-02T19:09:20.531Z,6.99
2022-11-02T19:12:12.779Z,6.95
2022-11-02T19:14:42.495Z,6.92
2022-11-02T19:17:09.935Z,6.87
2022-11-02T19:19:36.653Z,6.80
2022-11-02T19:22:02.952Z,6.78
2022-11-02T19:24:28.907Z,6.78
2022-11-02T19:26:54.727Z,6.75
2022-11-02T19:29:20.435Z,6.69
2022-11-02T19:31:46.393Z,6.63
2022-11-02T19:34:12.279Z,6.57
2022-11-02T19:36:38.114Z,6.54
2022-11-02T19:39:07.652Z,6.53
2022-11-02T19:41:33.345Z,6.51
2022-11-02T19:43:59.100Z,6.49
2022-11-02T19:46:26.247Z,6.48
2022-11-02T19:48:52.470Z,6.46
2022-11-02T19:51:20.794Z,6.42
2022-11-02T19:53:49.126Z,6.41
2022-11-02T19:56:16.250Z,6.40
2022-11-02T19:58:47.287Z,6.38
2022-11-02T20:01:22.259Z,6.33
2022-11-02T20:03:48.750Z,6.25
2022-11-02T20:06:19.493Z,6.23
2022-11-02T20:08:52.600Z,6.22
2022-11-02T20:11:19.040Z,6.22
2022-11-02T20:13:46.244Z,6.20
2022-11-02T20:16:14.195Z,6.19
2022-11-02T20:18:41.960Z,6.18
2022-11-02T20:21:10.991Z,6.17
2022-11-02T20:23:37.140Z,6.12
2022-11-02T20:26:05.180Z,6.11
2022-11-02T20:28:31.414Z,6.09
2022-11-02T20:30:57.230Z,6.06
2022-11-02T20:33:23.804Z,6.05
2022-11-02T20:35:49.687Z,5.99
2022-11-02T20:38:15.646Z,5.96
2022-11-02T20:40:41.524Z,5.93
2022-11-02T20:43:07.245Z,5.91
2022-11-02T20:45:33.079Z,5.90
2022-11-02T20:48:01.971Z,5.84
2022-11-02T20:50:28.159Z,5.80
2022-11-02T20:52:57.392Z,5.79
2022-11-02T20:55:23.144Z,5.74
2022-11-02T20:57:49.325Z,5.71
2022-11-02T21:00:17.288Z,5.70
2022-11-02T21:02:44.767Z,5.69
2022-11-02T21:05:10.806Z,5.69
2022-11-02T21:07:36.482Z,5.67
2022-11-02T21:10:02.202Z,5.66
2022-11-02T21:12:46.580Z,5.64
2022-11-02T21:15:12.283Z,5.62
2022-11-02T21:17:38.056Z,5.63
2022-11-02T21:20:28.488Z,5.63
2022-11-02T21:22:49.983Z,5.62
2022-11-02T21:25:15.994Z,5.58
2022-11-02T21:27:41.897Z,5.53
2022-11-02T21:30:08.486Z,5.51
2022-11-02T21:32:34.272Z,5.50
2022-11-02T21:35:00.605Z,5.49
2022-11-02T21:37:26.282Z,5.47
2022-11-02T21:39:52.042Z,5.43
2022-11-02T21:42:17.766Z,5.38
2022-11-02T21:44:43.437Z,5.36
2022-11-02T21:47:09.395Z,5.37
2022-11-02T21:49:35.158Z,5.38
2022-11-02T21:52:01.235Z,5.35
2022-11-02T21:54:26.878Z,5.35
2022-11-02T21:56:52.630Z,5.35
2022-11-02T21:59:18.338Z,5.34
2022-11-02T22:01:44.162Z,5.32
2022-11-02T22:04:11.395Z,5.30
2022-11-02T22:06:37.619Z,5.27
2022-11-02T22:09:05.622Z,5.25
2022-11-02T22:11:31.535Z,5.24
2022-11-02T22:13:58.766Z,5.21
2022-11-02T22:16:30.961Z,5.18
2022-11-02T22:18:59.075Z,5.12
2022-11-02T22:21:27.426Z,5.12
2022-11-02T22:23:53.670Z,5.11
2022-11-02T22:26:22.275Z,5.09
2022-11-02T22:28:48.644Z,5.08
2022-11-02T22:31:26.706Z,5.06
2022-11-02T22:33:56.001Z,5.02
2022-11-02T22:36:24.234Z,5.00
2022-11-02T22:38:52.629Z,4.99
2022-11-02T22:41:20.140Z,4.98
2022-11-02T22:43:46.713Z,4.99
2022-11-02T22:46:13.970Z,5.00
2022-11-02T22:48:39.617Z,5.01
2022-11-02T22:51:05.757Z,5.01
2022-11-02T22:53:31.983Z,4.98
2022-11-02T22:56:12.979Z,4.96
2022-11-02T22:58:40.567Z,4.94
2022-11-02T23:01:08.226Z,4.92
2022-11-02T23:03:34.541Z,4.90
2022-11-02T23:06:01.022Z,4.88
2022-11-02T23:08:28.147Z,4.87
2022-11-02T23:11:17.153Z,4.87
2022-11-02T23:13:44.151Z,4.84
2022-11-02T23:16:21.007Z,4.83
2022-11-02T23:19:11.547Z,4.83
2022-11-02T23:21:46.642Z,4.85
2022-11-02T23:24:31.196Z,4.85
2022-11-02T23:26:57.343Z,4.86
2022-11-02T23:29:41.648Z,4.87
2022-11-02T23:32:28.088Z,4.89
2022-11-02T23:35:13.918Z,4.90
2022-11-02T23:37:39.807Z,4.90
2022-11-02T23:40:06.291Z,4.91
2022-11-02T23:42:32.286Z,4.90
2022-11-02T23:44:58.237Z,4.90
2022-11-02T23:47:46.865Z,4.87
2022-11-02T23:50:12.712Z,4.84
2022-11-02T23:52:57.169Z,4.81
2022-11-02T23:55:41.508Z,4.73
2022-11-02T23:58:07.604Z,4.69
